Kimberly Turecamo — WDC6838 — position and weather

sailwx.info

Track history (hours):
 
Tides and Currents Weather Stations Pressure Air Temp Water Temp Dewpoint Dewpoint Depression Visibility Wind Speed Wind Dir Waves Ship Positions

Kimberly Turecamo

Owner: Moran Towing Corporation, New Canaan, CT. More information available from US FCC via Universal Licensing System and Coast Guard Vessel Documentation Center.

Last reported at 2017-Nov-20 00:19 UTC. Time now 2017-Nov-20 17:17 UTC.
Position N 42°20' W 070°59'.

Length 120 m; draft 5 m.

Type: . MMSI: 367061980.

Date/timePositionNaut miles runAvg speedWind from/ knotsBaromVisibWave heightAir tempDewpointWater temp
2017-Nov-20 00:19N 42°20' W 070°59'0 0.0
2017-Nov-20 00:01N 42°20' W 070°59'0 0.0
2017-Nov-19 23:28N 42°20' W 070°59'0 0.0
2017-Nov-19 23:00N 42°20' W 070°59'0 0.0
2017-Nov-19 22:31N 42°20' W 070°59'0 0.0
2017-Nov-19 21:45N 42°20' W 070°59'0 0.0
2017-Nov-19 21:30N 42°20' W 070°59'0 0.0
2017-Nov-19 20:57N 42°20' W 070°59'0 0.0
2017-Nov-19 20:30N 42°20' W 070°59'0 0.0
2017-Nov-19 20:00N 42°20' W 070°59'0 0.0
2017-Nov-19 19:27N 42°20' W 070°59'0 0.0
2017-Nov-19 19:00N 42°20' W 070°59'0 0.0
2017-Nov-19 18:24N 42°20' W 070°59'0 0.0
2017-Nov-19 18:00N 42°20' W 070°59'0 0.0
2017-Nov-19 17:30N 42°20' W 070°59'0 0.0
2017-Nov-19 17:00N 42°20' W 070°59'0 0.2
2017-Nov-19 16:30N 42°21' W 070°59'0 0.0
2017-Nov-19 15:57N 42°21' W 070°59'0 0.0
2017-Nov-19 15:30N 42°21' W 070°59'0 0.0
2017-Nov-19 13:09N 42°21' W 070°59'0 0.0
2017-Nov-19 11:48N 42°21' W 070°59'0 0.0
2017-Nov-19 11:30N 42°21' W 070°59'0 0.0
2017-Nov-19 10:57N 42°21' W 070°59'0 0.0
2017-Nov-19 10:06N 42°21' W 070°59'0 0.1
2017-Nov-19 10:00N 42°21' W 070°59'0 0.0
2017-Nov-19 09:30N 42°21' W 070°59'0 0.0
2017-Nov-19 09:00N 42°21' W 070°59'0 0.0
2017-Nov-19 07:06N 42°21' W 070°59'0 0.0
2017-Nov-19 06:48N 42°21' W 070°59'0 0.0
2017-Nov-19 06:24N 42°21' W 070°59'0 0.0
2017-Nov-19 05:45N 42°21' W 070°59'0 0.0
2017-Nov-19 05:30N 42°21' W 070°59'0 0.0
2017-Nov-19 04:57N 42°21' W 070°59'0 0.0
2017-Nov-19 04:30N 42°21' W 070°59'0 0.0
2017-Nov-19 00:09N 42°21' W 070°59'0 1.3
2017-Nov-18 23:58N 42°20' W 070°59'2 3.2
2017-Nov-18 23:30N 42°20' W 070°57'4 7.4
2017-Nov-18 23:00N 42°23' W 070°53'4 8.3
2017-Nov-18 22:30N 42°26' W 070°49'4 8.8
2017-Nov-18 22:00N 42°29' W 070°45'4 8.7
2017-Nov-18 21:30N 42°32' W 070°40'4 8.4
2017-Nov-18 21:00N 42°35' W 070°36'4 8.1
2017-Nov-18 20:30N 42°38' W 070°33'4 8.5
2017-Nov-18 20:00N 42°42' W 070°34'5 9.2
2017-Nov-18 19:30N 42°45' W 070°38'90 8.3
2017-Nov-18 08:42N 43°52' W 069°15'2 8.9
2017-Nov-18 08:25N 43°54' W 069°13'5 8.3
2017-Nov-18 07:48N 43°56' W 069°06'3 8.9
2017-Nov-18 07:28N 43°58' W 069°02'4 8.6
2017-Nov-18 07:00N 44°01' W 069°01'5 9.6
2017-Nov-18 06:31N 44°06' W 069°01'5 9.9
2017-Nov-18 06:00N 44°11' W 069°00'5 9.8
2017-Nov-18 05:30N 44°16' W 068°59'1 0.1
2017-Nov-17 13:55N 44°17' W 068°58'3 8.1
2017-Nov-17 13:30N 44°13' W 068°60'4 7.0
2017-Nov-17 12:59N 44°10' W 069°00'1 1.5
2017-Nov-17 12:30N 44°09' W 069°00'3 6.1
2017-Nov-17 11:59N 44°06' W 069°00'4 7.3
2017-Nov-17 11:29N 44°02' W 069°00'4 7.3
2017-Nov-17 10:58N 43°59' W 069°00'4 7.7
2017-Nov-17 10:30N 43°57' W 069°05'4 7.5
2017-Nov-17 09:58N 43°56' W 069°10'4 7.2
2017-Nov-17 09:29N 43°53' W 069°14'80 6.5
2017-Nov-16 21:12N 42°59' W 070°34'2 7.2
2017-Nov-16 20:57N 42°57' W 070°34'3 7.2
2017-Nov-16 20:30N 42°54' W 070°34'4 7.3
2017-Nov-16 20:00N 42°50' W 070°33'4 7.0
2017-Nov-16 19:30N 42°47' W 070°33'4 7.2
2017-Nov-16 19:00N 42°43' W 070°32'4 7.5
2017-Nov-16 18:30N 42°40' W 070°32'4 7.1
2017-Nov-16 18:00N 42°36' W 070°33'4 7.1
2017-Nov-16 17:30N 42°34' W 070°36'3 6.7
2017-Nov-16 17:00N 42°31' W 070°40'3 6.5
2017-Nov-16 16:30N 42°29' W 070°43'3 6.5
2017-Nov-16 16:00N 42°28' W 070°47'3 6.7
2017-Nov-16 15:30N 42°25' W 070°50'4 6.7
2017-Nov-16 14:58N 42°23' W 070°54'3 5.5
2017-Nov-16 14:30N 42°21' W 070°56'1 2.8
2017-Nov-16 14:00N 42°20' W 070°58'2 2.9
2017-Nov-16 13:28N 42°20' W 070°56'5 4.8
2017-Nov-16 12:32N 42°15' W 070°57'1 3.3
2017-Nov-16 12:19N 42°15' W 070°58'1 2.3
2017-Nov-16 11:59N 42°15' W 070°59'0 0.1
2017-Nov-16 10:28N 42°15' W 070°59'0 0.0
2017-Nov-16 09:54N 42°15' W 070°59'0 0.0
2017-Nov-16 07:41N 42°15' W 070°59'0 0.0
2017-Nov-16 07:27N 42°15' W 070°59'0 0.0
2017-Nov-15 22:18N 42°15' W 070°59'0 0.0
2017-Nov-15 20:41N 42°15' W 070°59'3 0.7
2017-Nov-15 16:27N 42°17' W 070°56'2 5.3
2017-Nov-15 16:00N 42°19' W 070°56'2 3.5
2017-Nov-15 15:31N 42°20' W 070°58'1 1.4
2017-Nov-15 14:53N 42°20' W 070°57'1 3.9
2017-Nov-15 14:30N 42°22' W 070°56'4 4.5
2017-Nov-15 13:41N 42°23' W 070°51'1 6.1
2017-Nov-15 13:28N 42°22' W 070°49'3 6.0
2017-Nov-15 13:00N 42°20' W 070°47'3 6.0
2017-Nov-15 12:30N 42°18' W 070°44'91 3.7
2017-Nov-14 12:11N 41°15' W 072°11'1 1.1
2017-Nov-14 11:41N 41°15' W 072°12'0 1.2
2017-Nov-14 11:31N 41°15' W 072°11'3 5.1
2017-Nov-14 11:01N 41°14' W 072°14'3 5.4
2017-Nov-14 10:30N 41°14' W 072°18'3 5.2
2017-Nov-14 10:01N 41°13' W 072°21'3 5.5
2017-Nov-14 09:31N 41°13' W 072°25'3 5.6
2017-Nov-14 09:01N 41°12' W 072°29'3 6.1
2017-Nov-14 08:30N 41°12' W 072°33'3 6.8
2017-Nov-14 08:00N 41°12' W 072°37'4 7.2
2017-Nov-14 07:30N 41°11' W 072°42'48 7.7
2017-Nov-14 01:18N 40°54' W 073°41'3 7.2
2017-Nov-14 00:57N 40°52' W 073°44'3 7.2
2017-Nov-14 00:30N 40°50' W 073°46'3 5.3
2017-Nov-14 00:00N 40°48' W 073°49'3 6.5
2017-Nov-13 23:30N 40°48' W 073°54'3 6.3
2017-Nov-13 23:01N 40°46' W 073°57'3 5.5
2017-Nov-13 22:31N 40°44' W 073°58'3 5.7
2017-Nov-13 22:01N 40°41' W 074°00'4 0.2
2017-Nov-13 02:00N 40°38' W 074°03'0 0.5
2017-Nov-13 01:30N 40°38' W 074°03'0 0.2
2017-Nov-13 01:00N 40°38' W 074°03'1 1.6
2017-Nov-13 00:30N 40°37' W 074°03'0 0.7
2017-Nov-13 00:00N 40°37' W 074°03'2 3.3
2017-Nov-12 23:30N 40°36' W 074°01'0 0.0
2017-Nov-12 22:59N 40°36' W 074°01'0 0.2
2017-Nov-12 22:30N 40°36' W 074°02'5 9.5
2017-Nov-12 22:00N 40°39' W 074°06'1 1.7
2017-Nov-12 21:23N 40°38' W 074°08'0 0.0
2017-Nov-12 20:58N 40°38' W 074°08'0 0.0
2017-Nov-12 20:30N 40°38' W 074°08'0 0.0
2017-Nov-12 20:00N 40°38' W 074°08'0 0.0
2017-Nov-12 19:30N 40°38' W 074°08'0 0.0
2017-Nov-12 19:00N 40°38' W 074°08'0 0.0
2017-Nov-12 18:30N 40°38' W 074°08'0 0.0
2017-Nov-12 18:00N 40°38' W 074°08'0 0.0
2017-Nov-12 17:30N 40°38' W 074°08'0 0.0
2017-Nov-12 16:59N 40°38' W 074°08'0 0.0
2017-Nov-12 16:30N 40°38' W 074°08'0 0.0
2017-Nov-12 16:00N 40°38' W 074°08'0 0.0
2017-Nov-12 15:30N 40°38' W 074°08'0 0.0
2017-Nov-12 15:00N 40°38' W 074°08'0 0.0
2017-Nov-12 14:30N 40°38' W 074°08'0 0.0
2017-Nov-12 14:00N 40°38' W 074°08'0 0.0
2017-Nov-12 13:30N 40°38' W 074°08'0 0.0
2017-Nov-12 13:00N 40°38' W 074°08'0 0.0
2017-Nov-12 12:30N 40°38' W 074°08'0 0.0
2017-Nov-12 12:00N 40°38' W 074°08'0 0.0
2017-Nov-12 11:30N 40°38' W 074°08'0 0.0
2017-Nov-12 11:00N 40°38' W 074°08'0 0.0
2017-Nov-12 10:30N 40°38' W 074°08'0 0.0
2017-Nov-12 10:00N 40°38' W 074°08'0 0.0
2017-Nov-12 09:30N 40°38' W 074°08'0 0.0
2017-Nov-12 09:00N 40°38' W 074°08'2 3.7
2017-Nov-12 08:30N 40°39' W 074°05'0 0.0
2017-Nov-12 08:00N 40°39' W 074°05'2 3.8
2017-Nov-12 07:30N 40°38' W 074°03'1 1.5
2017-Nov-12 07:00N 40°38' W 074°03'2 3.5
2017-Nov-12 06:30N 40°36' W 074°02'3 5.5
2017-Nov-12 06:00N 40°33' W 074°02'3 5.7
2017-Nov-12 05:30N 40°31' W 073°59'4 7.5
2017-Nov-12 05:00N 40°29' W 073°55'33 5.9
2017-Nov-11 23:27N 39°57' W 073°56'4 6.6
2017-Nov-11 22:53N 39°53' W 073°57'2 6.5
2017-Nov-11 22:30N 39°50' W 073°57'3 6.6
2017-Nov-11 21:59N 39°47' W 073°58'3 6.7
2017-Nov-11 21:28N 39°44' W 073°59'3 6.5
2017-Nov-11 21:00N 39°41' W 073°60'4 6.6
2017-Nov-11 20:28N 39°37' W 074°01'3 6.6
2017-Nov-11 19:59N 39°34' W 074°02'3 6.6
2017-Nov-11 19:30N 39°32' W 074°05'39 6.3
2017-Nov-11 13:21N 39°02' W 074°37'3 5.9
2017-Nov-11 12:53N 39°00' W 074°40'23 4.0
2017-Nov-11 07:09N 39°01' W 075°09'1 5.9
2017-Nov-11 06:58N 39°02' W 075°10'3 5.6
2017-Nov-11 06:30N 39°05' W 075°11'3 5.4
2017-Nov-11 06:00N 39°07' W 075°13'3 5.3
2017-Nov-11 05:30N 39°09' W 075°15'3 5.4
2017-Nov-11 05:00N 39°11' W 075°17'3 6.1
2017-Nov-11 04:30N 39°14' W 075°19'4 7.1
2017-Nov-11 04:00N 39°17' W 075°22'4 7.0
2017-Nov-11 03:30N 39°19' W 075°25'3 6.3
2017-Nov-11 03:00N 39°22' W 075°28'4 7.6
2017-Nov-11 02:30N 39°25' W 075°31'2 4.0
2017-Nov-11 02:00N 39°26' W 075°32'2 3.2
2017-Nov-11 01:30N 39°27' W 075°34'4 8.7
2017-Nov-11 01:00N 39°32' W 075°33'1 2.2
2017-Nov-11 00:30N 39°33' W 075°33'0 0.0
2017-Nov-11 00:00N 39°33' W 075°33'0 0.0
2017-Nov-10 23:30N 39°33' W 075°33'0 0.2
2017-Nov-10 23:00N 39°33' W 075°33'0 0.2
2017-Nov-10 22:30N 39°33' W 075°33'0 0.0
2017-Nov-10 22:00N 39°33' W 075°33'0 0.0
2017-Nov-10 21:30N 39°33' W 075°33'0 0.0
2017-Nov-10 21:00N 39°33' W 075°33'0 0.0
2017-Nov-10 20:30N 39°33' W 075°33'0 0.0
2017-Nov-10 20:00N 39°33' W 075°33'0 0.0
2017-Nov-10 19:30N 39°33' W 075°33'0 0.0
2017-Nov-10 19:00N 39°33' W 075°33'0 0.1
2017-Nov-10 18:30N 39°33' W 075°33'0 0.3
2017-Nov-10 18:00N 39°33' W 075°33'0 0.2
2017-Nov-10 17:30N 39°33' W 075°33'0 0.0
2017-Nov-10 17:00N 39°33' W 075°33'0 0.0
2017-Nov-10 16:30N 39°33' W 075°33'0 0.0
2017-Nov-10 16:00N 39°33' W 075°33'0 0.0
2017-Nov-10 15:30N 39°33' W 075°33'0 0.0
2017-Nov-10 15:00N 39°33' W 075°33'1 1.9
2017-Nov-10 14:30N 39°34' W 075°33'3 5.9
2017-Nov-10 14:00N 39°36' W 075°34'4 7.6
2017-Nov-10 13:30N 39°40' W 075°32'4 8.4
2017-Nov-10 13:01N 39°44' W 075°30'4 7.8
2017-Nov-10 12:31N 39°47' W 075°28'4 8.7
2017-Nov-10 12:01N 39°49' W 075°23'4 7.5
2017-Nov-10 11:31N 39°51' W 075°18'3 6.8
2017-Nov-10 11:01N 39°52' W 075°14'3 6.5
2017-Nov-10 10:31N 39°53' W 075°10'0 1.0
2017-Nov-10 10:00N 39°53' W 075°10'1 1.8
2017-Nov-10 09:28N 39°53' W 075°11'0 0.0
2017-Nov-10 08:58N 39°53' W 075°11'0 0.0
2017-Nov-10 08:28N 39°53' W 075°11'0 0.0
2017-Nov-10 07:58N 39°53' W 075°11'0 0.0
2017-Nov-10 07:28N 39°53' W 075°11'0 0.0
2017-Nov-10 06:58N 39°53' W 075°11'0 0.0
2017-Nov-10 06:28N 39°53' W 075°11'0 0.0
2017-Nov-10 05:58N 39°53' W 075°11'0 0.0
2017-Nov-10 05:28N 39°53' W 075°11'0 0.0
2017-Nov-10 04:58N 39°53' W 075°11'0 0.0
2017-Nov-10 04:28N 39°53' W 075°11'0 0.0
2017-Nov-10 03:58N 39°53' W 075°11'0 0.0
2017-Nov-10 03:28N 39°53' W 075°11'0 0.0
2017-Nov-10 02:55N 39°53' W 075°11'0 0.0
2017-Nov-10 02:28N 39°53' W 075°11'0 0.0
2017-Nov-10 01:58N 39°53' W 075°11'0 0.0
2017-Nov-10 01:28N 39°53' W 075°11'0 0.0
2017-Nov-10 00:58N 39°53' W 075°11'0 0.0
2017-Nov-10 00:28N 39°53' W 075°11'  
Track history (hours):
 
Tides and Currents Weather Stations Pressure Air Temp Water Temp Dewpoint Dewpoint Depression Visibility Wind Speed Wind Dir Waves Ship Positions

Kimberly Turecamo

Owner: Moran Towing Corporation, New Canaan, CT. More information available from US FCC via Universal Licensing System and Coast Guard Vessel Documentation Center.

Last reported at 2017-Nov-20 00:19 UTC. Time now 2017-Nov-20 17:17 UTC.
Position N 42°20' W 070°59'.

Length 120 m; draft 5 m.

Type: . MMSI: 367061980.

Date/timePositionNaut miles runAvg speedWind from/ knotsBaromVisibWave heightAir tempDewpointWater temp
2017-Nov-20 00:19N 42°20' W 070°59'0 0.0
2017-Nov-20 00:01N 42°20' W 070°59'0 0.0
2017-Nov-19 23:28N 42°20' W 070°59'0 0.0
2017-Nov-19 23:00N 42°20' W 070°59'0 0.0
2017-Nov-19 22:31N 42°20' W 070°59'0 0.0
2017-Nov-19 21:45N 42°20' W 070°59'0 0.0
2017-Nov-19 21:30N 42°20' W 070°59'0 0.0
2017-Nov-19 20:57N 42°20' W 070°59'0 0.0
2017-Nov-19 20:30N 42°20' W 070°59'0 0.0
2017-Nov-19 20:00N 42°20' W 070°59'0 0.0
2017-Nov-19 19:27N 42°20' W 070°59'0 0.0
2017-Nov-19 19:00N 42°20' W 070°59'0 0.0
2017-Nov-19 18:24N 42°20' W 070°59'0 0.0
2017-Nov-19 18:00N 42°20' W 070°59'0 0.0
2017-Nov-19 17:30N 42°20' W 070°59'0 0.0
2017-Nov-19 17:00N 42°20' W 070°59'0 0.2
2017-Nov-19 16:30N 42°21' W 070°59'0 0.0
2017-Nov-19 15:57N 42°21' W 070°59'0 0.0
2017-Nov-19 15:30N 42°21' W 070°59'0 0.0
2017-Nov-19 13:09N 42°21' W 070°59'0 0.0
2017-Nov-19 11:48N 42°21' W 070°59'0 0.0
2017-Nov-19 11:30N 42°21' W 070°59'0 0.0
2017-Nov-19 10:57N 42°21' W 070°59'0 0.0
2017-Nov-19 10:06N 42°21' W 070°59'0 0.1
2017-Nov-19 10:00N 42°21' W 070°59'0 0.0
2017-Nov-19 09:30N 42°21' W 070°59'0 0.0
2017-Nov-19 09:00N 42°21' W 070°59'0 0.0
2017-Nov-19 07:06N 42°21' W 070°59'0 0.0
2017-Nov-19 06:48N 42°21' W 070°59'0 0.0
2017-Nov-19 06:24N 42°21' W 070°59'0 0.0
2017-Nov-19 05:45N 42°21' W 070°59'0 0.0
2017-Nov-19 05:30N 42°21' W 070°59'0 0.0
2017-Nov-19 04:57N 42°21' W 070°59'0 0.0
2017-Nov-19 04:30N 42°21' W 070°59'0 0.0
2017-Nov-19 00:09N 42°21' W 070°59'0 1.3
2017-Nov-18 23:58N 42°20' W 070°59'2 3.2
2017-Nov-18 23:30N 42°20' W 070°57'4 7.4
2017-Nov-18 23:00N 42°23' W 070°53'4 8.3
2017-Nov-18 22:30N 42°26' W 070°49'4 8.8
2017-Nov-18 22:00N 42°29' W 070°45'4 8.7
2017-Nov-18 21:30N 42°32' W 070°40'4 8.4
2017-Nov-18 21:00N 42°35' W 070°36'4 8.1
2017-Nov-18 20:30N 42°38' W 070°33'4 8.5
2017-Nov-18 20:00N 42°42' W 070°34'5 9.2
2017-Nov-18 19:30N 42°45' W 070°38'90 8.3
2017-Nov-18 08:42N 43°52' W 069°15'2 8.9
2017-Nov-18 08:25N 43°54' W 069°13'5 8.3
2017-Nov-18 07:48N 43°56' W 069°06'3 8.9
2017-Nov-18 07:28N 43°58' W 069°02'4 8.6
2017-Nov-18 07:00N 44°01' W 069°01'5 9.6
2017-Nov-18 06:31N 44°06' W 069°01'5 9.9
2017-Nov-18 06:00N 44°11' W 069°00'5 9.8
2017-Nov-18 05:30N 44°16' W 068°59'1 0.1
2017-Nov-17 13:55N 44°17' W 068°58'3 8.1
2017-Nov-17 13:30N 44°13' W 068°60'4 7.0
2017-Nov-17 12:59N 44°10' W 069°00'1 1.5
2017-Nov-17 12:30N 44°09' W 069°00'3 6.1
2017-Nov-17 11:59N 44°06' W 069°00'4 7.3
2017-Nov-17 11:29N 44°02' W 069°00'4 7.3
2017-Nov-17 10:58N 43°59' W 069°00'4 7.7
2017-Nov-17 10:30N 43°57' W 069°05'4 7.5
2017-Nov-17 09:58N 43°56' W 069°10'4 7.2
2017-Nov-17 09:29N 43°53' W 069°14'80 6.5
2017-Nov-16 21:12N 42°59' W 070°34'2 7.2
2017-Nov-16 20:57N 42°57' W 070°34'3 7.2
2017-Nov-16 20:30N 42°54' W 070°34'4 7.3
2017-Nov-16 20:00N 42°50' W 070°33'4 7.0
2017-Nov-16 19:30N 42°47' W 070°33'4 7.2
2017-Nov-16 19:00N 42°43' W 070°32'4 7.5
2017-Nov-16 18:30N 42°40' W 070°32'4 7.1
2017-Nov-16 18:00N 42°36' W 070°33'4 7.1
2017-Nov-16 17:30N 42°34' W 070°36'3 6.7
2017-Nov-16 17:00N 42°31' W 070°40'3 6.5
2017-Nov-16 16:30N 42°29' W 070°43'3 6.5
2017-Nov-16 16:00N 42°28' W 070°47'3 6.7
2017-Nov-16 15:30N 42°25' W 070°50'4 6.7
2017-Nov-16 14:58N 42°23' W 070°54'3 5.5
2017-Nov-16 14:30N 42°21' W 070°56'1 2.8
2017-Nov-16 14:00N 42°20' W 070°58'2 2.9
2017-Nov-16 13:28N 42°20' W 070°56'5 4.8
2017-Nov-16 12:32N 42°15' W 070°57'1 3.3
2017-Nov-16 12:19N 42°15' W 070°58'1 2.3
2017-Nov-16 11:59N 42°15' W 070°59'0 0.1
2017-Nov-16 10:28N 42°15' W 070°59'0 0.0
2017-Nov-16 09:54N 42°15' W 070°59'0 0.0
2017-Nov-16 07:41N 42°15' W 070°59'0 0.0
2017-Nov-16 07:27N 42°15' W 070°59'0 0.0
2017-Nov-15 22:18N 42°15' W 070°59'0 0.0
2017-Nov-15 20:41N 42°15' W 070°59'3 0.7
2017-Nov-15 16:27N 42°17' W 070°56'2 5.3
2017-Nov-15 16:00N 42°19' W 070°56'2 3.5
2017-Nov-15 15:31N 42°20' W 070°58'1 1.4
2017-Nov-15 14:53N 42°20' W 070°57'1 3.9
2017-Nov-15 14:30N 42°22' W 070°56'4 4.5
2017-Nov-15 13:41N 42°23' W 070°51'1 6.1
2017-Nov-15 13:28N 42°22' W 070°49'3 6.0
2017-Nov-15 13:00N 42°20' W 070°47'3 6.0
2017-Nov-15 12:30N 42°18' W 070°44'91 3.7
2017-Nov-14 12:11N 41°15' W 072°11'1 1.1
2017-Nov-14 11:41N 41°15' W 072°12'0 1.2
2017-Nov-14 11:31N 41°15' W 072°11'3 5.1
2017-Nov-14 11:01N 41°14' W 072°14'3 5.4
2017-Nov-14 10:30N 41°14' W 072°18'3 5.2
2017-Nov-14 10:01N 41°13' W 072°21'3 5.5
2017-Nov-14 09:31N 41°13' W 072°25'3 5.6
2017-Nov-14 09:01N 41°12' W 072°29'3 6.1
2017-Nov-14 08:30N 41°12' W 072°33'3 6.8
2017-Nov-14 08:00N 41°12' W 072°37'4 7.2
2017-Nov-14 07:30N 41°11' W 072°42'48 7.7
2017-Nov-14 01:18N 40°54' W 073°41'3 7.2
2017-Nov-14 00:57N 40°52' W 073°44'3 7.2
2017-Nov-14 00:30N 40°50' W 073°46'3 5.3
2017-Nov-14 00:00N 40°48' W 073°49'3 6.5
2017-Nov-13 23:30N 40°48' W 073°54'3 6.3
2017-Nov-13 23:01N 40°46' W 073°57'3 5.5
2017-Nov-13 22:31N 40°44' W 073°58'3 5.7
2017-Nov-13 22:01N 40°41' W 074°00'4 0.2
2017-Nov-13 02:00N 40°38' W 074°03'0 0.5
2017-Nov-13 01:30N 40°38' W 074°03'0 0.2
2017-Nov-13 01:00N 40°38' W 074°03'1 1.6
2017-Nov-13 00:30N 40°37' W 074°03'0 0.7
2017-Nov-13 00:00N 40°37' W 074°03'2 3.3
2017-Nov-12 23:30N 40°36' W 074°01'0 0.0
2017-Nov-12 22:59N 40°36' W 074°01'0 0.2
2017-Nov-12 22:30N 40°36' W 074°02'5 9.5
2017-Nov-12 22:00N 40°39' W 074°06'1 1.7
2017-Nov-12 21:23N 40°38' W 074°08'0 0.0
2017-Nov-12 20:58N 40°38' W 074°08'0 0.0
2017-Nov-12 20:30N 40°38' W 074°08'0 0.0
2017-Nov-12 20:00N 40°38' W 074°08'0 0.0
2017-Nov-12 19:30N 40°38' W 074°08'0 0.0
2017-Nov-12 19:00N 40°38' W 074°08'0 0.0
2017-Nov-12 18:30N 40°38' W 074°08'0 0.0
2017-Nov-12 18:00N 40°38' W 074°08'0 0.0
2017-Nov-12 17:30N 40°38' W 074°08'0 0.0
2017-Nov-12 16:59N 40°38' W 074°08'0 0.0
2017-Nov-12 16:30N 40°38' W 074°08'0 0.0
2017-Nov-12 16:00N 40°38' W 074°08'0 0.0
2017-Nov-12 15:30N 40°38' W 074°08'0 0.0
2017-Nov-12 15:00N 40°38' W 074°08'0 0.0
2017-Nov-12 14:30N 40°38' W 074°08'0 0.0
2017-Nov-12 14:00N 40°38' W 074°08'0 0.0
2017-Nov-12 13:30N 40°38' W 074°08'0 0.0
2017-Nov-12 13:00N 40°38' W 074°08'0 0.0
2017-Nov-12 12:30N 40°38' W 074°08'0 0.0
2017-Nov-12 12:00N 40°38' W 074°08'0 0.0
2017-Nov-12 11:30N 40°38' W 074°08'0 0.0
2017-Nov-12 11:00N 40°38' W 074°08'0 0.0
2017-Nov-12 10:30N 40°38' W 074°08'0 0.0
2017-Nov-12 10:00N 40°38' W 074°08'0 0.0
2017-Nov-12 09:30N 40°38' W 074°08'0 0.0
2017-Nov-12 09:00N 40°38' W 074°08'2 3.7
2017-Nov-12 08:30N 40°39' W 074°05'0 0.0
2017-Nov-12 08:00N 40°39' W 074°05'2 3.8
2017-Nov-12 07:30N 40°38' W 074°03'1 1.5
2017-Nov-12 07:00N 40°38' W 074°03'2 3.5
2017-Nov-12 06:30N 40°36' W 074°02'3 5.5
2017-Nov-12 06:00N 40°33' W 074°02'3 5.7
2017-Nov-12 05:30N 40°31' W 073°59'4 7.5
2017-Nov-12 05:00N 40°29' W 073°55'33 5.9
2017-Nov-11 23:27N 39°57' W 073°56'4 6.6
2017-Nov-11 22:53N 39°53' W 073°57'2 6.5
2017-Nov-11 22:30N 39°50' W 073°57'3 6.6
2017-Nov-11 21:59N 39°47' W 073°58'3 6.7
2017-Nov-11 21:28N 39°44' W 073°59'3 6.5
2017-Nov-11 21:00N 39°41' W 073°60'4 6.6
2017-Nov-11 20:28N 39°37' W 074°01'3 6.6
2017-Nov-11 19:59N 39°34' W 074°02'3 6.6
2017-Nov-11 19:30N 39°32' W 074°05'39 6.3
2017-Nov-11 13:21N 39°02' W 074°37'3 5.9
2017-Nov-11 12:53N 39°00' W 074°40'23 4.0
2017-Nov-11 07:09N 39°01' W 075°09'1 5.9
2017-Nov-11 06:58N 39°02' W 075°10'3 5.6
2017-Nov-11 06:30N 39°05' W 075°11'3 5.4
2017-Nov-11 06:00N 39°07' W 075°13'3 5.3
2017-Nov-11 05:30N 39°09' W 075°15'3 5.4
2017-Nov-11 05:00N 39°11' W 075°17'3 6.1
2017-Nov-11 04:30N 39°14' W 075°19'4 7.1
2017-Nov-11 04:00N 39°17' W 075°22'4 7.0
2017-Nov-11 03:30N 39°19' W 075°25'3 6.3
2017-Nov-11 03:00N 39°22' W 075°28'4 7.6
2017-Nov-11 02:30N 39°25' W 075°31'2 4.0
2017-Nov-11 02:00N 39°26' W 075°32'2 3.2
2017-Nov-11 01:30N 39°27' W 075°34'4 8.7
2017-Nov-11 01:00N 39°32' W 075°33'1 2.2
2017-Nov-11 00:30N 39°33' W 075°33'0 0.0
2017-Nov-11 00:00N 39°33' W 075°33'0 0.0
2017-Nov-10 23:30N 39°33' W 075°33'0 0.2
2017-Nov-10 23:00N 39°33' W 075°33'0 0.2
2017-Nov-10 22:30N 39°33' W 075°33'0 0.0
2017-Nov-10 22:00N 39°33' W 075°33'0 0.0
2017-Nov-10 21:30N 39°33' W 075°33'0 0.0
2017-Nov-10 21:00N 39°33' W 075°33'0 0.0
2017-Nov-10 20:30N 39°33' W 075°33'0 0.0
2017-Nov-10 20:00N 39°33' W 075°33'0 0.0
2017-Nov-10 19:30N 39°33' W 075°33'0 0.0
2017-Nov-10 19:00N 39°33' W 075°33'0 0.1
2017-Nov-10 18:30N 39°33' W 075°33'0 0.3
2017-Nov-10 18:00N 39°33' W 075°33'0 0.2
2017-Nov-10 17:30N 39°33' W 075°33'0 0.0
2017-Nov-10 17:00N 39°33' W 075°33'0 0.0
2017-Nov-10 16:30N 39°33' W 075°33'0 0.0
2017-Nov-10 16:00N 39°33' W 075°33'0 0.0
2017-Nov-10 15:30N 39°33' W 075°33'0 0.0
2017-Nov-10 15:00N 39°33' W 075°33'1 1.9
2017-Nov-10 14:30N 39°34' W 075°33'3 5.9
2017-Nov-10 14:00N 39°36' W 075°34'4 7.6
2017-Nov-10 13:30N 39°40' W 075°32'4 8.4
2017-Nov-10 13:01N 39°44' W 075°30'4 7.8
2017-Nov-10 12:31N 39°47' W 075°28'4 8.7
2017-Nov-10 12:01N 39°49' W 075°23'4 7.5
2017-Nov-10 11:31N 39°51' W 075°18'3 6.8
2017-Nov-10 11:01N 39°52' W 075°14'3 6.5
2017-Nov-10 10:31N 39°53' W 075°10'0 1.0
2017-Nov-10 10:00N 39°53' W 075°10'1 1.8
2017-Nov-10 09:28N 39°53' W 075°11'0 0.0
2017-Nov-10 08:58N 39°53' W 075°11'0 0.0
2017-Nov-10 08:28N 39°53' W 075°11'0 0.0
2017-Nov-10 07:58N 39°53' W 075°11'0 0.0
2017-Nov-10 07:28N 39°53' W 075°11'0 0.0
2017-Nov-10 06:58N 39°53' W 075°11'0 0.0
2017-Nov-10 06:28N 39°53' W 075°11'0 0.0
2017-Nov-10 05:58N 39°53' W 075°11'0 0.0
2017-Nov-10 05:28N 39°53' W 075°11'0 0.0
2017-Nov-10 04:58N 39°53' W 075°11'0 0.0
2017-Nov-10 04:28N 39°53' W 075°11'0 0.0
2017-Nov-10 03:58N 39°53' W 075°11'0 0.0
2017-Nov-10 03:28N 39°53' W 075°11'0 0.0
2017-Nov-10 02:55N 39°53' W 075°11'0 0.0
2017-Nov-10 02:28N 39°53' W 075°11'0 0.0
2017-Nov-10 01:58N 39°53' W 075°11'0 0.0
2017-Nov-10 01:28N 39°53' W 075°11'0 0.0
2017-Nov-10 00:58N 39°53' W 075°11'0 0.0
2017-Nov-10 00:28N 39°53' W 075°11'  

Dump ship's entire track history